KICL/ICL METAR and TAF weather

Enter ICAO airport designator
Station Type Date Time Source
KICL METAR 2021/02/27 09:35 UTC NOAA

KICL 270935Z AUTO 00000KT 10SM CLR M01/M01 A2986 RMK AO2


Station Type Date Time Source
KICL Decoded METAR 2021/02/27 09:35 UTC NOAA

Clarinda, IA, United States (KICL) 40-43N 095-02W
Feb 27, 2021 - 04:35 AM EST / 2021.02.27 0935 UTC
Wind: Calm:0
Visibility: 10 mile(s):0
Sky conditions: clear
Temperature: 30 F (-1 C)
Dew Point: 30 F (-1 C)
Relative Humidity: 100%
Pressure (altimeter): 29.86 in. Hg (1011 hPa)
ob: KICL 270935Z AUTO 00000KT 10SM CLR M01/M01 A2986 RMK AO2
cycle: 9

Station Type Date Time Source
KICL TAF UTC NOAA

Error!

Example: see airport list